Flight Track Log - Related Links

Times and Time Zones

All times are in EDT time to prevent confusion due to time zone crossing. See the ASQ5685 flight status page for this flight to view local times or setup timezone preferences in your user account.

Time Position Orientation Groundspeed Altitude Reporting Facility
EDT Latitude Longitude Course Direction KTS MPH feet Rate Location/Type
Sat 09:26:55 AM 33.6333 -84.4000 100° East 162 186 1,600  Level Atlanta TRACON
Sat 09:27:55 AM 33.6333 -84.3500 90° East 185 213 3,200 1,700 Climbing Atlanta TRACON
Sat 09:28:55 AM 33.6333 -84.2667 90° East 260 299 5,000 2,050 Climbing Atlanta TRACON
Sat 09:29:00 AM 33.8442 -84.1814 73° East  Level Estimated
Sat 09:29:55 AM 33.6333 -84.1667 90° East 281 323 7,300  Level Atlanta TRACON
Sat 09:30:00 AM 33.9133 -84.0989 54° Northeast  Level Estimated
Sat 09:30:56 AM 33.6461 -84.0811 80° East 297 342 9,900  Level Atlanta Center
Sat 09:31:00 AM 33.8963 -83.9836 100° East  Level FlightAware Approximate
Sat 09:31:56 AM 33.7044 -84.0064 47° Northeast 280 322 10,600  Level Atlanta Center
Sat 09:32:00 AM 33.8793 -83.8682 100° East  Level FlightAware Approximate
Sat 09:32:56 AM 33.7711 -83.9214 47° Northeast 324 373 12,200  Level Atlanta Center
Sat 09:33:56 AM 33.8400 -83.8336 47° Northeast 344 396 13,600 1,200 Climbing Atlanta Center
Sat 09:34:56 AM 33.9086 -83.7433 48° Northeast 357 411 14,600 1,050 Climbing Atlanta Center
Sat 09:35:56 AM 33.9753 -83.6431 51° Northeast 374 430 15,700 1,050 Climbing Atlanta Center
Sat 09:36:56 AM 34.0394 -83.5375 54° Northeast 388 447 16,700 1,100 Climbing Atlanta Center
Sat 09:37:56 AM 34.1078 -83.4292 53° Northeast 396 456 17,900 1,100 Climbing Atlanta Center
Sat 09:38:56 AM 34.1761 -83.3256 51° Northeast 396 456 18,900 1,100 Climbing Atlanta Center
Sat 09:39:56 AM 34.2422 -83.2169 54° Northeast 394 453 20,100 1,100 Climbing Atlanta Center
Sat 09:40:56 AM 34.3083 -83.1083 54° Northeast 394 453 21,100 900 Climbing Atlanta Center
Sat 09:41:56 AM 34.3681 -83.0119 53° Northeast 394 453 21,900 900 Climbing Atlanta Center
Sat 09:42:56 AM 34.4339 -82.9056 53° Northeast 394 453 22,900 1,000 Climbing Atlanta Center
Sat 09:43:56 AM 34.4975 -82.7986 54° Northeast 389 448 23,900 1,000 Climbing Atlanta Center
Sat 09:44:56 AM 34.5675 -82.6942 51° Northeast 389 448 24,900 850 Climbing Atlanta Center
Sat 09:45:56 AM 34.6247 -82.6000 54° Northeast 389 448 25,600 750 Climbing Atlanta Center
Sat 09:46:56 AM 34.6964 -82.4825 53° Northeast 389 448 26,400 700 Climbing Atlanta Center
Sat 09:47:56 AM 34.7617 -82.3725 54° Northeast 389 448 27,000 300 Climbing Atlanta Center
Sat 09:48:56 AM 34.8292 -82.2625 53° Northeast 389 448 27,000  Level Atlanta Center
Sat 09:49:56 AM 34.9006 -82.1494 52° Northeast 400 460 27,000  Level Atlanta Center
Sat 09:50:56 AM 34.9819 -82.0208 52° Northeast 419 482 27,000  Level Atlanta Center
Sat 09:51:56 AM 35.0508 -81.9000 55° Northeast 434 499 27,000 200 Level Atlanta Center
Sat 09:52:56 AM 35.1194 -81.7711 57° Northeast 439 505 27,400 700 Climbing Atlanta Center
Sat 09:53:56 AM 35.1817 -81.6500 58° Northeast 439 505 28,400 800 Climbing Atlanta Center
Sat 09:54:56 AM 35.2442 -81.5314 57° Northeast 422 486 29,000 300 Climbing Atlanta Center
Sat 09:55:56 AM 35.3083 -81.4097 57° Northeast 417 480 29,000  Level Atlanta Center
Sat 09:56:56 AM 35.3683 -81.2881 59° Northeast 417 480 29,000  Level Atlanta Center
Sat 09:57:56 AM 35.4322 -81.1661 57° Northeast 417 480 29,000  Level Atlanta Center
Sat 09:58:56 AM 35.4961 -81.0414 58° Northeast 424 488 29,000  Level Atlanta Center
Sat 09:59:56 AM 35.5578 -80.9244 57° Northeast 414 476 29,000  Level Atlanta Center
Sat 10:00:56 AM 35.6175 -80.8122 57° Northeast 407 468 29,000  Level Atlanta Center
Sat 10:01:56 AM 35.6769 -80.6950 58° Northeast 402 463 29,000  Level Atlanta Center
Sat 10:04:02 AM 35.8006 -80.4553 58° Northeast 395 455 29,000  Level Washington Center
Sat 10:04:59 AM 35.8617 -80.3361 58° Northeast 402 463 29,000  Level Washington Center
Sat 10:06:00 AM 35.9228 -80.2142 58° Northeast 407 468 29,000  Level Washington Center
Sat 10:07:01 AM 35.9839 -80.0919 58° Northeast 413 475 29,000  Level Washington Center
Sat 10:08:02 AM 36.0419 -79.9897 55° Northeast 408 470 29,000  Level Washington Center
Sat 10:09:00 AM 36.1067 -79.8725 56° Northeast 408 470 29,000 -50 Level Washington Center
Sat 10:10:01 AM 36.1758 -79.7478 55° Northeast 427 491 28,900 -298 Descending Washington Center
Sat 10:11:01 AM 36.2511 -79.6153 55° Northeast 434 499 28,400 -446 Descending Washington Center
Sat 10:12:02 AM 36.3156 -79.5025 55° Northeast 440 506 28,000 -202 Descending Washington Center
Sat 10:13:00 AM 36.3861 -79.3769 55° Northeast 435 501 28,000  Level Washington Center
Sat 10:14:01 AM 36.4550 -79.2461 57° Northeast 435 501 28,000  Level Washington Center
Sat 10:15:02 AM 36.5189 -79.1328 55° Northeast 443 510 28,000  Level Washington Center
Sat 10:16:00 AM 36.5978 -78.9992 54° Northeast 443 510 28,000 -1,059 Level Washington Center
Sat 10:17:01 AM 36.6750 -78.8525 57° Northeast 443 510 25,900 -1,475 Descending Washington Center
Sat 10:18:02 AM 36.7428 -78.7333 55° Northeast 454 522 25,000 -446 Descending Washington Center
Sat 10:19:02 AM 36.8108 -78.6092 56° Northeast 449 517 25,000 -305 Level Washington Center
Sat 10:20:00 AM 36.8947 -78.5006 46° Northeast 437 503 24,400 -814 Descending Washington Center
Sat 10:21:00 AM 37.0017 -78.3928 39° Northeast 434 499 23,400 -992 Descending Washington Center
Sat 10:22:01 AM 37.0936 -78.2947 40° Northeast 439 505 22,400 -700 Descending Washington Center
Sat 10:23:00 AM 37.1897 -78.1911 41° Northeast 444 511 22,000 -202 Descending Washington Center
Sat 10:24:00 AM 37.2708 -78.1050 40° Northeast 439 505 22,000  Level Washington Center
Sat 10:25:00 AM 37.3606 -78.0089 40° Northeast 429 494 22,000  Level Washington Center
Sat 10:26:01 AM 37.4500 -77.9122 41° Northeast 423 487 22,000  Level Washington Center
Sat 10:27:02 AM 37.5414 -77.8208 38° Northeast 417 480 22,000  Level Washington Center
Sat 10:28:00 AM 37.6447 -77.7608 25° Northeast 406 467 22,000 -1,322 Level Washington Center
Sat 10:29:00 AM 37.7544 -77.6956 25° Northeast 406 467 19,400 -2,430 Descending Washington Center
Sat 10:30:01 AM 37.8556 -77.6381 24° Northeast 406 467 17,100 -2,410 Descending Washington Center
Sat 10:31:02 AM 37.9503 -77.5825 25° Northeast 396 456 14,500 -2,479 Descending Washington Center
Sat 10:32:02 AM 38.0514 -77.5272 23° Northeast 368 423 12,100 -2,186 Descending Washington Center
Sat 10:33:00 AM 38.1314 -77.4792 25° Northeast 344 396 10,200 -1,068 Descending Washington Center
Sat 10:34:00 AM 38.2050 -77.4336 26° Northeast 312 359 10,000 -99 Descending Washington Center
Sat 10:35:01 AM 38.2781 -77.4247 North 265 305 10,000 -295 Level Washington Center
Sat 10:36:02 AM 38.3486 -77.4503 344° North 253 291 9,400 -1,190 Descending Washington Center
Sat 10:37:02 AM 38.4217 -77.4494 North 253 291 7,600 -1,850 Descending Washington Center
Sat 10:38:02 AM 38.4947 -77.4486 North 253 291 5,700 -1,780 Descending Washington Center
Sat 10:39:00 AM 38.5675 -77.4450 North 253 291 4,100 -857 Descending Washington Center
Sat 10:40:01 AM 38.6364 -77.4469 359° North 253 291 4,000 -141 Descending Washington Center
Sat 10:40:25 AM 38.6667 -77.4500 355° North 249 287 3,900 -786 Descending Potomac TRACON
Sat 10:41:25 AM 38.7333 -77.4333 11° North 226 260 2,900 -1,000 Descending Potomac TRACON

Login

Don't have an account? Register now (free) for customized features, flight alerts, and more!